sensor_id;sensor_type;location;lat;lon;timestamp;pressure;altitude;pressure_sealevel;temperature;humidity
82986;BME280;72786;53.546;9.910;2024-03-08T00:01:57;101739.59;;;4.36;79.05
82986;BME280;72786;53.546;9.910;2024-03-08T00:04:24;101769.19;;;4.47;79.47
82986;BME280;72786;53.546;9.910;2024-03-08T00:06:50;101771.75;;;4.47;79.53
82986;BME280;72786;53.546;9.910;2024-03-08T00:09:17;101766.25;;;4.45;79.50
82986;BME280;72786;53.546;9.910;2024-03-08T00:11:43;101769.09;;;4.41;79.35
82986;BME280;72786;53.546;9.910;2024-03-08T00:14:10;101768.38;;;4.42;79.46
82986;BME280;72786;53.546;9.910;2024-03-08T00:16:36;101767.91;;;4.32;79.71
82986;BME280;72786;53.546;9.910;2024-03-08T00:19:03;101717.94;;;4.13;80.46
82986;BME280;72786;53.546;9.910;2024-03-08T00:21:29;101739.44;;;4.22;80.11
82986;BME280;72786;53.546;9.910;2024-03-08T00:23:56;101760.28;;;4.32;80.18
82986;BME280;72786;53.546;9.910;2024-03-08T00:26:22;101730.84;;;4.14;80.66
82986;BME280;72786;53.546;9.910;2024-03-08T00:28:49;101737.84;;;4.10;79.98
82986;BME280;72786;53.546;9.910;2024-03-08T00:31:15;101753.78;;;4.21;80.07
82986;BME280;72786;53.546;9.910;2024-03-08T00:33:43;101761.59;;;4.23;80.41
82986;BME280;72786;53.546;9.910;2024-03-08T00:36:10;101747.59;;;4.19;80.21
82986;BME280;72786;53.546;9.910;2024-03-08T00:38:36;101764.84;;;4.22;79.83
82986;BME280;72786;53.546;9.910;2024-03-08T00:41:03;101759.38;;;4.19;80.10
82986;BME280;72786;53.546;9.910;2024-03-08T00:43:30;101763.44;;;4.24;80.05
82986;BME280;72786;53.546;9.910;2024-03-08T00:45:57;101737.06;;;4.04;80.84
82986;BME280;72786;53.546;9.910;2024-03-08T00:48:24;101699.81;;;3.85;80.69
82986;BME280;72786;53.546;9.910;2024-03-08T00:50:50;101762.44;;;4.16;80.59
82986;BME280;72786;53.546;9.910;2024-03-08T00:53:17;101756.25;;;4.14;81.08
82986;BME280;72786;53.546;9.910;2024-03-08T00:55:43;101738.47;;;4.02;80.29
82986;BME280;72786;53.546;9.910;2024-03-08T00:58:13;101755.72;;;4.17;81.19
82986;BME280;72786;53.546;9.910;2024-03-08T01:00:39;101751.69;;;4.12;80.73
82986;BME280;72786;53.546;9.910;2024-03-08T01:03:06;101744.47;;;4.02;81.68
82986;BME280;72786;53.546;9.910;2024-03-08T01:05:33;101755.03;;;4.05;81.15
82986;BME280;72786;53.546;9.910;2024-03-08T01:08:01;101742.41;;;4.00;81.69
82986;BME280;72786;53.546;9.910;2024-03-08T01:10:29;101753.69;;;4.02;81.74
82986;BME280;72786;53.546;9.910;2024-03-08T01:12:56;101739.41;;;4.02;81.60
82986;BME280;72786;53.546;9.910;2024-03-08T01:15:23;101697.53;;;3.81;81.55
82986;BME280;72786;53.546;9.910;2024-03-08T01:17:49;101722.84;;;3.99;82.01
82986;BME280;72786;53.546;9.910;2024-03-08T01:20:16;101714.09;;;3.97;81.76
82986;BME280;72786;53.546;9.910;2024-03-08T01:22:44;101726.47;;;4.01;81.65
82986;BME280;72786;53.546;9.910;2024-03-08T01:25:10;101719.97;;;4.03;81.34
82986;BME280;72786;53.546;9.910;2024-03-08T01:27:37;101719.56;;;4.00;81.51
82986;BME280;72786;53.546;9.910;2024-03-08T01:30:03;101699.88;;;3.92;81.89
82986;BME280;72786;53.546;9.910;2024-03-08T01:32:31;101704.56;;;3.89;81.85
82986;BME280;72786;53.546;9.910;2024-03-08T01:34:57;101702.63;;;3.93;81.77
82986;BME280;72786;53.546;9.910;2024-03-08T01:37:24;101711.47;;;3.90;81.68
82986;BME280;72786;53.546;9.910;2024-03-08T01:39:50;101661.81;;;3.67;82.18
82986;BME280;72786;53.546;9.910;2024-03-08T01:42:16;101687.38;;;3.81;82.41
82986;BME280;72786;53.546;9.910;2024-03-08T01:44:44;101696.84;;;3.82;82.37
82986;BME280;72786;53.546;9.910;2024-03-08T01:47:11;101672.16;;;3.69;82.62
82986;BME280;72786;53.546;9.910;2024-03-08T01:49:38;101652.59;;;3.55;82.70
82986;BME280;72786;53.546;9.910;2024-03-08T01:52:05;101679.06;;;3.70;83.19
82986;BME280;72786;53.546;9.910;2024-03-08T01:54:31;101681.00;;;3.65;83.41
82986;BME280;72786;53.546;9.910;2024-03-08T01:56:58;101679.69;;;3.62;83.39
82986;BME280;72786;53.546;9.910;2024-03-08T01:59:26;101670.84;;;3.65;83.48
82986;BME280;72786;53.546;9.910;2024-03-08T02:01:55;101674.00;;;3.70;83.27
82986;BME280;72786;53.546;9.910;2024-03-08T02:04:21;101624.34;;;3.47;83.26
82986;BME280;72786;53.546;9.910;2024-03-08T02:06:48;101665.75;;;3.65;82.87
82986;BME280;72786;53.546;9.910;2024-03-08T02:09:14;101669.94;;;3.65;82.66
82986;BME280;72786;53.546;9.910;2024-03-08T02:11:41;101663.03;;;3.64;82.94
82986;BME280;72786;53.546;9.910;2024-03-08T02:14:08;101621.94;;;3.41;83.34
82986;BME280;72786;53.546;9.910;2024-03-08T02:16:35;101664.78;;;3.58;83.32
82986;BME280;72786;53.546;9.910;2024-03-08T02:19:02;101657.75;;;3.50;84.03
82986;BME280;72786;53.546;9.910;2024-03-08T02:21:29;101628.00;;;3.36;83.68
82986;BME280;72786;53.546;9.910;2024-03-08T02:23:56;101652.19;;;3.52;83.92
82986;BME280;72786;53.546;9.910;2024-03-08T02:26:23;101653.59;;;3.50;83.74
82986;BME280;72786;53.546;9.910;2024-03-08T02:28:49;101619.31;;;3.34;84.13
82986;BME280;72786;53.546;9.910;2024-03-08T02:31:16;101658.66;;;3.50;83.77
82986;BME280;72786;53.546;9.910;2024-03-08T02:33:42;101643.06;;;3.47;84.42
82986;BME280;72786;53.546;9.910;2024-03-08T02:36:09;101612.31;;;3.26;84.37
82986;BME280;72786;53.546;9.910;2024-03-08T02:38:36;101620.72;;;3.32;84.10
82986;BME280;72786;53.546;9.910;2024-03-08T02:41:03;101586.75;;;3.12;84.33
82986;BME280;72786;53.546;9.910;2024-03-08T02:43:30;101649.63;;;3.40;84.26
82986;BME280;72786;53.546;9.910;2024-03-08T02:45:56;101639.63;;;3.34;84.66
82986;BME280;72786;53.546;9.910;2024-03-08T02:48:23;101644.56;;;3.40;83.82
82986;BME280;72786;53.546;9.910;2024-03-08T02:50:51;101651.97;;;3.38;84.28
82986;BME280;72786;53.546;9.910;2024-03-08T02:53:18;101640.50;;;3.35;84.94
82986;BME280;72786;53.546;9.910;2024-03-08T02:55:48;101611.28;;;3.19;84.42
82986;BME280;72786;53.546;9.910;2024-03-08T02:58:15;101640.94;;;3.38;84.37
82986;BME280;72786;53.546;9.910;2024-03-08T03:00:42;101634.53;;;3.34;84.26
82986;BME280;72786;53.546;9.910;2024-03-08T03:03:10;101619.00;;;3.26;84.39
82986;BME280;72786;53.546;9.910;2024-03-08T03:05:37;101628.31;;;3.20;84.15
82986;BME280;72786;53.546;9.910;2024-03-08T03:08:04;101587.06;;;2.96;85.07
82986;BME280;72786;53.546;9.910;2024-03-08T03:10:35;101623.75;;;3.17;85.65
82986;BME280;72786;53.546;9.910;2024-03-08T03:13:02;101615.16;;;3.10;85.22
82986;BME280;72786;53.546;9.910;2024-03-08T03:15:30;101628.13;;;3.18;85.52
82986;BME280;72786;53.546;9.910;2024-03-08T03:17:57;101625.19;;;3.15;84.82
82986;BME280;72786;53.546;9.910;2024-03-08T03:20:23;101596.88;;;3.00;85.26
82986;BME280;72786;53.546;9.910;2024-03-08T03:22:53;101624.38;;;3.09;84.73
82986;BME280;72786;53.546;9.910;2024-03-08T03:25:20;101612.09;;;3.00;85.53
82986;BME280;72786;53.546;9.910;2024-03-08T03:27:55;101620.22;;;2.97;84.75
82986;BME280;72786;53.546;9.910;2024-03-08T03:30:24;101629.53;;;3.04;85.13
82986;BME280;72786;53.546;9.910;2024-03-08T03:32:53;101626.41;;;2.99;85.65
82986;BME280;72786;53.546;9.910;2024-03-08T03:35:21;101623.56;;;3.03;85.96
82986;BME280;72786;53.546;9.910;2024-03-08T03:37:48;101586.31;;;2.85;85.79
82986;BME280;72786;53.546;9.910;2024-03-08T03:40:28;101618.69;;;2.93;85.48
82986;BME280;72786;53.546;9.910;2024-03-08T03:42:55;101618.19;;;2.95;86.14
82986;BME280;72786;53.546;9.910;2024-03-08T03:45:23;101618.88;;;2.94;86.24
82986;BME280;72786;53.546;9.910;2024-03-08T03:47:49;101599.91;;;2.85;86.13
82986;BME280;72786;53.546;9.910;2024-03-08T03:50:17;101587.00;;;2.71;85.63
82986;BME280;72786;53.546;9.910;2024-03-08T03:52:46;101590.94;;;2.69;85.68
82986;BME280;72786;53.546;9.910;2024-03-08T03:55:13;101614.22;;;2.85;86.31
82986;BME280;72786;53.546;9.910;2024-03-08T03:57:40;101611.44;;;2.83;86.30
82986;BME280;72786;53.546;9.910;2024-03-08T04:00:08;101603.25;;;2.79;87.25
82986;BME280;72786;53.546;9.910;2024-03-08T04:02:41;101612.50;;;2.91;86.46
82986;BME280;72786;53.546;9.910;2024-03-08T04:05:09;101618.06;;;2.88;86.68
82986;BME280;72786;53.546;9.910;2024-03-08T04:07:35;101620.09;;;2.91;86.30
82986;BME280;72786;53.546;9.910;2024-03-08T04:10:03;101622.63;;;2.91;85.90
82986;BME280;72786;53.546;9.910;2024-03-08T04:12:29;101611.88;;;2.86;85.89
82986;BME280;72786;53.546;9.910;2024-03-08T04:14:56;101626.56;;;2.89;85.86
82986;BME280;72786;53.546;9.910;2024-03-08T04:17:23;101612.06;;;2.88;86.08
82986;BME280;72786;53.546;9.910;2024-03-08T04:19:52;101618.28;;;2.90;85.83
82986;BME280;72786;53.546;9.910;2024-03-08T04:22:19;101617.13;;;2.88;85.90
82986;BME280;72786;53.546;9.910;2024-03-08T04:24:46;101608.91;;;2.83;86.14
82986;BME280;72786;53.546;9.910;2024-03-08T04:27:13;101612.38;;;2.84;86.31
82986;BME280;72786;53.546;9.910;2024-03-08T04:29:40;101607.94;;;2.88;86.04
82986;BME280;72786;53.546;9.910;2024-03-08T04:32:08;101599.28;;;2.81;85.98
82986;BME280;72786;53.546;9.910;2024-03-08T04:34:35;101596.66;;;2.86;86.04
82986;BME280;72786;53.546;9.910;2024-03-08T04:37:02;101596.56;;;2.79;85.77
82986;BME280;72786;53.546;9.910;2024-03-08T04:39:29;101594.03;;;2.79;86.28
82986;BME280;72786;53.546;9.910;2024-03-08T04:41:59;101591.47;;;2.79;86.49
82986;BME280;72786;53.546;9.910;2024-03-08T04:44:32;101596.88;;;2.75;86.21
82986;BME280;72786;53.546;9.910;2024-03-08T04:47:00;101567.63;;;2.59;86.37
82986;BME280;72786;53.546;9.910;2024-03-08T04:49:27;101601.00;;;2.75;86.27
82986;BME280;72786;53.546;9.910;2024-03-08T04:51:54;101592.06;;;2.71;86.27
82986;BME280;72786;53.546;9.910;2024-03-08T04:54:21;101580.94;;;2.64;86.00
82986;BME280;72786;53.546;9.910;2024-03-08T04:56:47;101556.47;;;2.52;86.12
82986;BME280;72786;53.546;9.910;2024-03-08T04:59:14;101575.53;;;2.68;86.55
82986;BME280;72786;53.546;9.910;2024-03-08T05:01:40;101564.78;;;2.63;86.50
82986;BME280;72786;53.546;9.910;2024-03-08T05:04:07;101586.50;;;2.74;86.35
82986;BME280;72786;53.546;9.910;2024-03-08T05:06:35;101552.94;;;2.57;86.18
82986;BME280;72786;53.546;9.910;2024-03-08T05:09:03;101582.88;;;2.72;86.24
82986;BME280;72786;53.546;9.910;2024-03-08T05:11:40;101570.56;;;2.62;86.32
82986;BME280;72786;53.546;9.910;2024-03-08T05:14:07;101569.97;;;2.58;86.51
82986;BME280;72786;53.546;9.910;2024-03-08T05:16:34;101577.88;;;2.66;86.67
82986;BME280;72786;53.546;9.910;2024-03-08T05:19:02;101575.84;;;2.64;86.30
82986;BME280;72786;53.546;9.910;2024-03-08T05:21:28;101579.09;;;2.63;86.32
82986;BME280;72786;53.546;9.910;2024-03-08T05:23:55;101536.38;;;2.41;86.37
82986;BME280;72786;53.546;9.910;2024-03-08T05:26:21;101574.19;;;2.52;86.71
82986;BME280;72786;53.546;9.910;2024-03-08T05:28:48;101574.63;;;2.55;87.24
82986;BME280;72786;53.546;9.910;2024-03-08T05:31:19;101548.03;;;2.46;87.05
82986;BME280;72786;53.546;9.910;2024-03-08T05:33:48;101541.13;;;2.45;86.42
82986;BME280;72786;53.546;9.910;2024-03-08T05:36:16;101574.72;;;2.62;86.35
82986;BME280;72786;53.546;9.910;2024-03-08T05:38:46;101534.97;;;2.43;86.30
82986;BME280;72786;53.546;9.910;2024-03-08T05:41:12;101566.63;;;2.64;86.21
82986;BME280;72786;53.546;9.910;2024-03-08T05:43:40;101564.28;;;2.66;86.02
82986;BME280;72786;53.546;9.910;2024-03-08T05:46:07;101562.88;;;2.68;85.70
82986;BME280;72786;53.546;9.910;2024-03-08T05:48:33;101563.88;;;2.63;86.01
82986;BME280;72786;53.546;9.910;2024-03-08T05:51:00;101562.50;;;2.65;86.57
82986;BME280;72786;53.546;9.910;2024-03-08T05:53:28;101565.28;;;2.61;85.82
82986;BME280;72786;53.546;9.910;2024-03-08T05:55:58;101559.72;;;2.63;85.95
82986;BME280;72786;53.546;9.910;2024-03-08T05:58:25;101544.09;;;2.48;85.82
82986;BME280;72786;53.546;9.910;2024-03-08T06:00:51;101576.75;;;2.64;85.46
82986;BME280;72786;53.546;9.910;2024-03-08T06:03:19;101540.44;;;2.46;85.33
82986;BME280;72786;53.546;9.910;2024-03-08T06:05:48;101568.25;;;2.64;85.49
82986;BME280;72786;53.546;9.910;2024-03-08T06:08:16;101569.25;;;2.71;85.37
82986;BME280;72786;53.546;9.910;2024-03-08T06:10:42;101573.44;;;2.71;85.18
82986;BME280;72786;53.546;9.910;2024-03-08T06:13:09;101579.41;;;2.71;85.38
82986;BME280;72786;53.546;9.910;2024-03-08T06:15:38;101572.63;;;2.65;86.03
82986;BME280;72786;53.546;9.910;2024-03-08T06:18:05;101546.44;;;2.59;85.48
82986;BME280;72786;53.546;9.910;2024-03-08T06:20:32;101558.22;;;2.71;85.96
82986;BME280;72786;53.546;9.910;2024-03-08T06:22:59;101555.38;;;2.75;85.88
82986;BME280;72786;53.546;9.910;2024-03-08T06:25:26;101540.06;;;2.68;85.42
82986;BME280;72786;53.546;9.910;2024-03-08T06:27:52;101546.44;;;2.71;85.46
82986;BME280;72786;53.546;9.910;2024-03-08T06:30:19;101554.78;;;2.83;84.78
82986;BME280;72786;53.546;9.910;2024-03-08T06:32:47;101570.91;;;2.96;84.61
82986;BME280;72786;53.546;9.910;2024-03-08T06:35:14;101534.50;;;2.83;85.06
82986;BME280;72786;53.546;9.910;2024-03-08T06:37:42;101563.63;;;2.92;84.46
82986;BME280;72786;53.546;9.910;2024-03-08T06:40:11;101556.50;;;3.01;84.14
82986;BME280;72786;53.546;9.910;2024-03-08T06:42:41;101551.44;;;3.01;83.86
82986;BME280;72786;53.546;9.910;2024-03-08T06:45:07;101553.53;;;3.11;83.59
82986;BME280;72786;53.546;9.910;2024-03-08T06:47:36;101529.22;;;2.94;83.17
82986;BME280;72786;53.546;9.910;2024-03-08T06:50:04;101512.91;;;2.92;82.96
82986;BME280;72786;53.546;9.910;2024-03-08T06:52:30;101551.72;;;3.22;83.23
82986;BME280;72786;53.546;9.910;2024-03-08T06:54:57;101518.25;;;3.12;83.01
82986;BME280;72786;53.546;9.910;2024-03-08T06:57:24;101548.97;;;3.33;82.38
82986;BME280;72786;53.546;9.910;2024-03-08T06:59:50;101529.50;;;3.27;82.72
82986;BME280;72786;53.546;9.910;2024-03-08T07:02:18;101547.66;;;3.42;81.90
82986;BME280;72786;53.546;9.910;2024-03-08T07:04:45;101514.69;;;3.30;81.84
82986;BME280;72786;53.546;9.910;2024-03-08T07:07:12;101539.09;;;3.54;81.42
82986;BME280;72786;53.546;9.910;2024-03-08T07:09:38;101544.53;;;3.57;81.15
82986;BME280;72786;53.546;9.910;2024-03-08T07:12:05;101536.81;;;3.63;80.12
82986;BME280;72786;53.546;9.910;2024-03-08T07:14:32;101551.94;;;3.68;80.75
82986;BME280;72786;53.546;9.910;2024-03-08T07:16:58;101548.78;;;3.76;80.02
82986;BME280;72786;53.546;9.910;2024-03-08T07:19:25;101520.06;;;3.70;79.88
82986;BME280;72786;53.546;9.910;2024-03-08T07:21:51;101486.75;;;3.62;79.30
82986;BME280;72786;53.546;9.910;2024-03-08T07:24:18;101550.81;;;3.98;78.88
82986;BME280;72786;53.546;9.910;2024-03-08T07:26:44;101542.16;;;4.03;78.65
82986;BME280;72786;53.546;9.910;2024-03-08T07:29:11;101512.31;;;3.95;78.54
82986;BME280;72786;53.546;9.910;2024-03-08T07:31:37;101549.78;;;4.22;78.13
82986;BME280;72786;53.546;9.910;2024-03-08T07:34:04;101523.38;;;4.15;78.07
82986;BME280;72786;53.546;9.910;2024-03-08T07:36:34;101536.28;;;4.36;76.87
82986;BME280;72786;53.546;9.910;2024-03-08T07:39:01;101534.72;;;4.43;75.14
82986;BME280;72786;53.546;9.910;2024-03-08T07:41:28;101543.72;;;4.53;75.83
82986;BME280;72786;53.546;9.910;2024-03-08T07:43:57;101539.22;;;4.58;75.51
82986;BME280;72786;53.546;9.910;2024-03-08T07:46:24;101508.44;;;4.49;75.25
82986;BME280;72786;53.546;9.910;2024-03-08T07:48:50;101535.72;;;4.77;74.94
82986;BME280;72786;53.546;9.910;2024-03-08T07:51:18;101539.53;;;4.80;74.38
82986;BME280;72786;53.546;9.910;2024-03-08T07:53:44;101543.06;;;4.95;74.51
82986;BME280;72786;53.546;9.910;2024-03-08T07:56:11;101535.75;;;5.10;74.48
82986;BME280;72786;53.546;9.910;2024-03-08T07:58:39;101544.56;;;5.26;74.18
82986;BME280;72786;53.546;9.910;2024-03-08T08:01:06;101542.47;;;5.50;74.15
82986;BME280;72786;53.546;9.910;2024-03-08T08:03:33;101540.34;;;5.67;71.69
82986;BME280;72786;53.546;9.910;2024-03-08T08:06:00;101507.78;;;5.64;72.03
82986;BME280;72786;53.546;9.910;2024-03-08T08:08:27;101540.47;;;6.01;70.52
82986;BME280;72786;53.546;9.910;2024-03-08T08:10:54;101536.13;;;6.07;69.69
82986;BME280;72786;53.546;9.910;2024-03-08T08:13:20;101498.25;;;6.03;69.58
82986;BME280;72786;53.546;9.910;2024-03-08T08:15:47;101532.31;;;6.25;68.45
82986;BME280;72786;53.546;9.910;2024-03-08T08:18:14;101525.41;;;6.38;69.62
82986;BME280;72786;53.546;9.910;2024-03-08T08:20:40;101515.19;;;6.45;67.59
82986;BME280;72786;53.546;9.910;2024-03-08T08:23:07;101519.72;;;6.68;67.69
82986;BME280;72786;53.546;9.910;2024-03-08T08:25:35;101516.09;;;6.80;66.22
82986;BME280;72786;53.546;9.910;2024-03-08T08:28:01;101526.59;;;7.04;66.54
82986;BME280;72786;53.546;9.910;2024-03-08T08:30:30;101523.28;;;7.12;66.65
82986;BME280;72786;53.546;9.910;2024-03-08T08:32:59;101497.97;;;7.06;65.87
82986;BME280;72786;53.546;9.910;2024-03-08T08:35:27;101510.13;;;7.30;65.24
82986;BME280;72786;53.546;9.910;2024-03-08T08:37:55;101513.22;;;7.34;64.76
82986;BME280;72786;53.546;9.910;2024-03-08T08:40:21;101483.09;;;7.32;65.17
82986;BME280;72786;53.546;9.910;2024-03-08T08:42:48;101484.47;;;7.50;64.46
82986;BME280;72786;53.546;9.910;2024-03-08T08:45:15;101514.00;;;7.55;64.69
82986;BME280;72786;53.546;9.910;2024-03-08T08:47:49;101482.25;;;7.53;64.14
82986;BME280;72786;53.546;9.910;2024-03-08T08:50:16;101505.84;;;7.80;64.21
82986;BME280;72786;53.546;9.910;2024-03-08T08:52:49;101493.81;;;7.79;63.42
82986;BME280;72786;53.546;9.910;2024-03-08T08:55:16;101509.75;;;7.99;62.92
82986;BME280;72786;53.546;9.910;2024-03-08T08:57:47;101509.28;;;8.10;62.81
82986;BME280;72786;53.546;9.910;2024-03-08T09:00:14;101494.41;;;7.99;62.88
82986;BME280;72786;53.546;9.910;2024-03-08T09:02:45;101499.09;;;8.03;62.79
82986;BME280;72786;53.546;9.910;2024-03-08T09:05:11;101494.22;;;8.27;64.12
82986;BME280;72786;53.546;9.910;2024-03-08T09:07:38;101495.34;;;8.44;62.00
82986;BME280;72786;53.546;9.910;2024-03-08T09:10:05;101453.81;;;8.31;61.85
82986;BME280;72786;53.546;9.910;2024-03-08T09:12:43;101496.97;;;8.51;60.86
82986;BME280;72786;53.546;9.910;2024-03-08T09:15:10;101451.25;;;8.31;60.59
82986;BME280;72786;53.546;9.910;2024-03-08T09:17:40;101485.88;;;8.59;60.50
82986;BME280;72786;53.546;9.910;2024-03-08T09:20:08;101474.25;;;8.69;60.13
82986;BME280;72786;53.546;9.910;2024-03-08T09:22:35;101470.25;;;8.87;60.85
82986;BME280;72786;53.546;9.910;2024-03-08T09:25:01;101467.94;;;8.97;59.81
82986;BME280;72786;53.546;9.910;2024-03-08T09:27:28;101471.34;;;9.04;58.65
82986;BME280;72786;53.546;9.910;2024-03-08T09:29:54;101463.66;;;9.19;59.55
82986;BME280;72786;53.546;9.910;2024-03-08T09:32:21;101458.53;;;8.89;57.65
82986;BME280;72786;53.546;9.910;2024-03-08T09:34:49;101450.38;;;9.00;59.03
82986;BME280;72786;53.546;9.910;2024-03-08T09:37:16;101411.44;;;8.80;58.86
82986;BME280;72786;53.546;9.910;2024-03-08T09:39:43;101446.56;;;9.11;58.85
82986;BME280;72786;53.546;9.910;2024-03-08T09:42:11;101446.16;;;9.55;59.09
82986;BME280;72786;53.546;9.910;2024-03-08T09:44:44;101444.28;;;9.45;57.18
82986;BME280;72786;53.546;9.910;2024-03-08T09:47:15;101444.34;;;9.14;58.06
82986;BME280;72786;53.546;9.910;2024-03-08T09:49:42;101424.50;;;9.20;57.55
82986;BME280;72786;53.546;9.910;2024-03-08T09:52:09;101435.41;;;9.50;58.06
82986;BME280;72786;53.546;9.910;2024-03-08T09:54:37;101397.53;;;9.48;55.56
82986;BME280;72786;53.546;9.910;2024-03-08T09:57:06;101417.81;;;9.53;56.23
82986;BME280;72786;53.546;9.910;2024-03-08T09:59:35;101417.53;;;9.59;56.34
82986;BME280;72786;53.546;9.910;2024-03-08T10:02:04;101373.97;;;9.19;55.41
82986;BME280;72786;53.546;9.910;2024-03-08T10:04:31;101382.44;;;9.42;56.89
82986;BME280;72786;53.546;9.910;2024-03-08T10:07:00;101373.47;;;9.54;54.48
82986;BME280;72786;53.546;9.910;2024-03-08T10:09:27;101402.25;;;9.75;54.75
82986;BME280;72786;53.546;9.910;2024-03-08T10:11:57;101401.69;;;9.78;54.27
82986;BME280;72786;53.546;9.910;2024-03-08T10:14:26;101394.41;;;9.74;53.23
82986;BME280;72786;53.546;9.910;2024-03-08T10:16:53;101350.72;;;9.57;54.59
82986;BME280;72786;53.546;9.910;2024-03-08T10:19:20;101363.50;;;9.81;55.92
82986;BME280;72786;53.546;9.910;2024-03-08T10:21:51;101391.00;;;10.06;54.46
82986;BME280;72786;53.546;9.910;2024-03-08T10:24:23;101377.69;;;10.42;55.06
82986;BME280;72786;53.546;9.910;2024-03-08T10:26:53;101375.16;;;10.59;54.14
82986;BME280;72786;53.546;9.910;2024-03-08T10:29:20;101376.72;;;10.82;52.87
82986;BME280;72786;53.546;9.910;2024-03-08T10:31:47;101372.44;;;10.57;50.80
82986;BME280;72786;53.546;9.910;2024-03-08T10:34:13;101361.94;;;10.31;52.06
82986;BME280;72786;53.546;9.910;2024-03-08T10:36:40;101347.13;;;10.20;51.95
82986;BME280;72786;53.546;9.910;2024-03-08T10:39:22;101336.59;;;10.34;53.79
82986;BME280;72786;53.546;9.910;2024-03-08T10:41:55;101334.66;;;10.56;51.99
82986;BME280;72786;53.546;9.910;2024-03-08T10:44:32;101301.97;;;10.22;51.61
82986;BME280;72786;53.546;9.910;2024-03-08T10:47:18;101348.28;;;10.55;53.24
82986;BME280;72786;53.546;9.910;2024-03-08T10:49:59;101322.69;;;10.23;50.38
82986;BME280;72786;53.546;9.910;2024-03-08T10:52:31;101341.13;;;10.36;52.17
82986;BME280;72786;53.546;9.910;2024-03-08T10:54:59;101332.56;;;10.52;52.91
82986;BME280;72786;53.546;9.910;2024-03-08T10:57:26;101313.19;;;10.39;50.24
82986;BME280;72786;53.546;9.910;2024-03-08T10:59:54;101332.69;;;10.54;52.00
82986;BME280;72786;53.546;9.910;2024-03-08T11:02:25;101331.06;;;10.71;52.05
82986;BME280;72786;53.546;9.910;2024-03-08T11:04:51;101334.38;;;10.70;50.86
82986;BME280;72786;53.546;9.910;2024-03-08T11:07:19;101318.53;;;10.74;51.70
82986;BME280;72786;53.546;9.910;2024-03-08T11:09:48;101317.75;;;10.92;50.25
82986;BME280;72786;53.546;9.910;2024-03-08T11:12:21;101302.66;;;10.95;50.48
82986;BME280;72786;53.546;9.910;2024-03-08T11:14:52;101318.97;;;10.96;49.33
82986;BME280;72786;53.546;9.910;2024-03-08T11:19:59;101288.16;;;11.04;49.61
82986;BME280;72786;53.546;9.910;2024-03-08T11:22:29;101297.34;;;11.19;48.67
82986;BME280;72786;53.546;9.910;2024-03-08T11:25:05;101265.78;;;11.03;47.48
82986;BME280;72786;53.546;9.910;2024-03-08T11:27:36;101276.66;;;10.84;47.87
82986;BME280;72786;53.546;9.910;2024-03-08T11:30:07;101303.22;;;11.10;51.75
82986;BME280;72786;53.546;9.910;2024-03-08T11:32:53;101276.16;;;11.13;47.22
82986;BME280;72786;53.546;9.910;2024-03-08T11:35:22;101261.69;;;11.05;49.13
82986;BME280;72786;53.546;9.910;2024-03-08T11:37:50;101219.19;;;11.00;48.77
82986;BME280;72786;53.546;9.910;2024-03-08T11:40:17;101281.31;;;11.74;47.47
82986;BME280;72786;53.546;9.910;2024-03-08T11:42:46;101267.97;;;12.04;46.01
82986;BME280;72786;53.546;9.910;2024-03-08T11:45:18;101253.47;;;11.70;46.17
82986;BME280;72786;53.546;9.910;2024-03-08T11:47:47;101265.47;;;11.96;46.68
82986;BME280;72786;53.546;9.910;2024-03-08T11:50:15;101263.41;;;11.84;45.02
82986;BME280;72786;53.546;9.910;2024-03-08T11:52:43;101255.97;;;11.43;45.79
82986;BME280;72786;53.546;9.910;2024-03-08T11:55:11;101259.25;;;11.67;46.93
82986;BME280;72786;53.546;9.910;2024-03-08T11:57:39;101260.53;;;11.54;46.14
82986;BME280;72786;53.546;9.910;2024-03-08T12:00:06;101242.13;;;11.24;46.02
82986;BME280;72786;53.546;9.910;2024-03-08T12:03:01;101254.91;;;11.58;48.78
82986;BME280;72786;53.546;9.910;2024-03-08T12:05:27;101252.47;;;11.95;46.73
82986;BME280;72786;53.546;9.910;2024-03-08T12:07:57;101245.66;;;12.22;46.26
82986;BME280;72786;53.546;9.910;2024-03-08T12:10:28;101240.09;;;11.82;45.53
82986;BME280;72786;53.546;9.910;2024-03-08T12:12:57;101234.81;;;11.81;46.00
82986;BME280;72786;53.546;9.910;2024-03-08T12:15:26;101213.38;;;11.99;45.12
82986;BME280;72786;53.546;9.910;2024-03-08T12:17:54;101228.59;;;12.32;42.80
82986;BME280;72786;53.546;9.910;2024-03-08T12:20:28;101175.75;;;12.46;42.62
82986;BME280;72786;53.546;9.910;2024-03-08T12:22:56;101220.09;;;12.15;44.88
82986;BME280;72786;53.546;9.910;2024-03-08T12:25:33;101203.75;;;12.33;43.97
82986;BME280;72786;53.546;9.910;2024-03-08T12:28:13;101216.66;;;12.79;43.86
82986;BME280;72786;53.546;9.910;2024-03-08T12:30:49;101209.94;;;13.18;44.90
82986;BME280;72786;53.546;9.910;2024-03-08T12:33:18;101204.19;;;13.41;44.07
82986;BME280;72786;53.546;9.910;2024-03-08T12:35:52;101182.56;;;13.58;42.76
82986;BME280;72786;53.546;9.910;2024-03-08T12:38:28;101197.81;;;12.89;40.94
82986;BME280;72786;53.546;9.910;2024-03-08T12:41:00;101195.19;;;13.46;41.66
82986;BME280;72786;53.546;9.910;2024-03-08T12:43:28;101166.16;;;13.48;41.44
82986;BME280;72786;53.546;9.910;2024-03-08T12:46:00;101187.28;;;14.02;40.59
82986;BME280;72786;53.546;9.910;2024-03-08T12:48:27;101176.66;;;14.49;40.54
82986;BME280;72786;53.546;9.910;2024-03-08T12:50:53;101162.63;;;14.67;40.34
82986;BME280;72786;53.546;9.910;2024-03-08T12:53:21;101159.06;;;15.17;39.38
82986;BME280;72786;53.546;9.910;2024-03-08T12:55:49;101154.88;;;14.98;38.91
82986;BME280;72786;53.546;9.910;2024-03-08T12:58:15;101151.66;;;15.53;38.69
82986;BME280;72786;53.546;9.910;2024-03-08T13:00:43;101123.56;;;15.36;37.33
82986;BME280;72786;53.546;9.910;2024-03-08T13:03:09;101131.41;;;15.59;35.98
82986;BME280;72786;53.546;9.910;2024-03-08T13:05:38;101107.31;;;15.17;36.59